Azucena, Argentina
Current Conditions -  °F | °C
As of 11:00 AM on Wednesday 28 Jan 2015 (Local Time) from SAZM Reporting Station
Clear Clear  
Wind Chill: 72°   Ceiling: Unl
Heat Index: 72°   Visibility: 6mi
Dew Point: 37°   Wind: 14mph
Humidity: 29%   Direction: 160°SSE
Pressure: 29.88"   Gusts: NA
Location:  37.6°S, 59.37°W
Report Text: SAZM 281400Z 16012KT CAVOK 22/03 Q1012
Loading
Personal Weather Stations






























Interactive Weather Map New forecast layout! Learn more

10-Day Weather Forecast

Advertisements
Track Severe Weather on mobile